Time;durP1;ratioP1;P1;durP2;ratioP2;P2;SDS_P1;SDS_P2;PMS_P1;PMS_P2;Temp;Humidity;BMP_temperature;BMP_pressure;BME280_temperature;BME280_humidity;BME280_pressure;Samples;Min_cycle;Max_cycle;Signal;HPM_P1;HPM_P2
2023/07/14 00:01:49;;;;;;;4.80;2.00;;;;;;;18.49;100.00;100314.22;1443700;90;21479;-81
2023/07/14 00:04:20;;;;;;;11.65;2.08;;;;;;;18.46;100.00;100306.59;1451521;90;22382;-80
2023/07/14 00:06:47;;;;;;;5.60;2.13;;;;;;;18.44;100.00;100308.67;1450376;90;21391;-81
2023/07/14 00:09:28;;;;;;;6.50;1.60;;;;;;;18.43;100.00;100320.39;1451065;90;22448;-82
2023/07/14 00:11:55;;;;;;;3.50;2.30;;;;;;;18.44;100.00;100318.53;1444656;90;21627;-81
2023/07/14 00:14:21;;;;;;;2.27;1.65;;;;;;;18.45;100.00;100319.69;1447628;90;22375;-80
2023/07/14 00:16:47;;;;;;;2.00;1.80;;;;;;;18.45;100.00;100322.37;1443728;90;21579;-81
2023/07/14 00:19:17;;;;;;;2.05;1.57;;;;;;;18.49;100.00;100330.30;1442765;90;21457;-81
2023/07/14 00:21:45;;;;;;;4.37;2.15;;;;;;;18.49;100.00;100332.98;1448260;90;21545;-81
2023/07/14 00:24:15;;;;;;;3.20;2.10;;;;;;;18.52;100.00;100345.67;1444182;90;21428;-78
2023/07/14 00:26:46;;;;;;;5.83;2.25;;;;;;;18.52;100.00;100338.98;1446889;90;21561;-79
2023/07/14 00:29:34;;;;;;;5.33;2.37;;;;;;;18.51;100.00;100331.97;1449391;90;21539;-79
2023/07/14 00:32:01;;;;;;;3.00;1.65;;;;;;;18.54;100.00;100335.59;1452965;90;22477;-79
2023/07/14 00:34:27;;;;;;;2.83;1.23;;;;;;;18.54;100.00;100338.27;1443781;90;21456;-79
2023/07/14 00:36:53;;;;;;;4.45;1.80;;;;;;;18.56;100.00;100341.55;1454406;90;21428;-77
2023/07/14 00:39:19;;;;;;;2.95;2.05;;;;;;;18.55;100.00;100341.25;1451901;90;22330;-79
2023/07/14 00:41:46;;;;;;;5.27;2.40;;;;;;;18.54;100.00;100339.61;1449680;90;21472;-77
2023/07/14 00:44:17;;;;;;;2.50;1.70;;;;;;;18.52;100.00;100346.50;1447978;90;21619;-79
2023/07/14 00:46:45;;;;;;;4.33;1.80;;;;;;;18.57;100.00;100351.27;1442378;90;21442;-79
2023/07/14 00:49:38;;;;;;;8.27;2.30;;;;;;;18.52;100.00;100359.08;1452960;90;21575;-78
2023/07/14 00:52:09;;;;;;;3.97;1.40;;;;;;;18.47;100.00;100363.20;1451888;90;21650;-76
2023/07/14 00:54:38;;;;;;;2.60;1.87;;;;;;;18.46;100.00;100370.08;1445485;90;22314;-79
2023/07/14 00:57:05;;;;;;;6.95;2.05;;;;;;;18.43;100.00;100365.95;1442192;90;21472;-77
2023/07/14 00:59:33;;;;;;;6.90;2.10;;;;;;;18.41;100.00;100371.19;1444700;90;21472;-78
2023/07/14 01:02:20;;;;;;;2.53;1.87;;;;;;;18.38;100.00;100383.13;1453196;90;21516;-78
2023/07/14 01:04:54;;;;;;;7.17;3.00;;;;;;;18.28;100.00;100377.33;1448288;90;21450;-79
2023/07/14 01:07:32;;;;;;;2.67;2.13;;;;;;;18.26;100.00;100378.03;1440930;90;21591;-77
2023/07/14 01:10:00;;;;;;;4.67;2.30;;;;;;;18.18;100.00;100378.20;1449613;89;21516;-77
2023/07/14 01:12:29;;;;;;;3.27;1.90;;;;;;;18.17;100.00;100376.55;1440381;90;22565;-79
2023/07/14 01:14:57;;;;;;;6.33;2.30;;;;;;;18.14;100.00;100377.77;1453241;90;21560;-77
2023/07/14 01:17:24;;;;;;;5.30;2.93;;;;;;;18.11;100.00;100375.49;1446161;89;21619;-79
2023/07/14 01:19:55;;;;;;;3.77;2.23;;;;;;;18.11;100.00;100381.37;1445554;90;21524;-78
2023/07/14 01:22:54;;;;;;;7.67;2.67;;;;;;;18.06;100.00;100384.62;1446564;90;21634;-78
2023/07/14 01:25:41;;;;;;;4.30;2.77;;;;;;;18.05;100.00;100391.02;1442848;90;21612;-79
2023/07/14 01:28:13;;;;;;;6.50;3.20;;;;;;;18.01;100.00;100402.64;1449875;90;21539;-78
2023/07/14 01:30:40;;;;;;;7.07;2.53;;;;;;;17.98;100.00;100402.19;1451784;89;21487;-78
2023/07/14 01:33:15;;;;;;;3.17;2.53;;;;;;;17.96;100.00;100410.43;1442433;90;22474;-79
2023/07/14 01:35:55;;;;;;;8.07;2.70;;;;;;;17.96;100.00;100407.75;1455835;90;21450;-78
2023/07/14 01:38:22;;;;;;;3.20;2.90;;;;;;;17.97;100.00;100412.07;1452718;90;22168;-78
2023/07/14 01:40:49;;;;;;;8.27;3.07;;;;;;;17.93;100.00;100415.36;1448205;90;21412;-81
2023/07/14 01:43:15;;;;;;;5.43;3.07;;;;;;;17.95;100.00;100414.62;1451510;90;21538;-81
2023/07/14 01:45:55;;;;;;;5.20;2.60;;;;;;;17.95;100.00;100409.27;1454692;90;21413;-79
2023/07/14 01:48:32;;;;;;;4.73;3.13;;;;;;;17.96;100.00;100408.27;1450500;90;21494;-80
2023/07/14 01:51:04;;;;;;;8.90;3.07;;;;;;;17.95;100.00;100409.27;1457005;90;21553;-80
2023/07/14 01:53:36;;;;;;;6.20;3.53;;;;;;;17.95;100.00;100411.46;1454573;89;21538;-79
2023/07/14 01:56:06;;;;;;;5.83;3.33;;;;;;;17.94;100.00;100417.00;1438420;90;21420;-80
2023/07/14 01:58:40;;;;;;;3.70;2.72;;;;;;;17.91;100.00;100418.22;1443957;90;21471;-78
2023/07/14 02:01:06;;;;;;;2.73;2.53;;;;;;;17.91;100.00;100424.91;1452122;90;22337;-80
2023/07/14 02:03:43;;;;;;;5.50;2.77;;;;;;;17.91;100.00;100428.92;1452240;90;21539;-79
2023/07/14 02:06:10;;;;;;;5.17;2.90;;;;;;;17.94;100.00;100433.06;1446434;90;22507;-80
2023/07/14 02:08:37;;;;;;;5.43;2.87;;;;;;;17.97;100.00;100429.48;1447055;90;22620;-80
2023/07/14 02:11:03;;;;;;;7.93;3.23;;;;;;;18.01;100.00;100437.45;1447245;90;21630;-80
2023/07/14 02:13:31;;;;;;;4.50;3.27;;;;;;;18.00;100.00;100435.78;1448036;90;22448;-80
2023/07/14 02:15:57;;;;;;;9.13;3.57;;;;;;;18.00;100.00;100444.33;1453047;90;21612;-80
2023/07/14 02:18:28;;;;;;;4.10;3.70;;;;;;;18.01;100.00;100447.31;1439136;90;22330;-80
2023/07/14 02:20:56;;;;;;;3.97;3.10;;;;;;;17.98;100.00;100448.56;1445879;90;22980;-80
2023/07/14 02:23:26;;;;;;;6.33;3.70;;;;;;;17.99;100.00;100460.91;1439862;90;21479;-81
2023/07/14 02:26:04;;;;;;;5.37;3.20;;;;;;;17.98;100.00;100468.64;1450498;90;21480;-81
2023/07/14 02:28:30;;;;;;;6.27;3.37;;;;;;;17.97;100.00;100475.00;1447944;90;21486;-78
2023/07/14 02:31:04;;;;;;;4.07;2.80;;;;;;;17.99;100.00;100475.64;1450777;90;21494;-80
2023/07/14 02:33:36;;;;;;;4.17;3.43;;;;;;;17.98;100.00;100479.35;1448848;90;21649;-78
2023/07/14 02:36:50;;;;;;;5.27;3.40;;;;;;;17.97;100.00;100480.87;1454320;90;21634;-79
2023/07/14 02:39:16;;;;;;;4.60;3.90;;;;;;;17.95;100.00;100487.78;1445368;90;22337;-80
2023/07/14 02:41:43;;;;;;;5.40;3.50;;;;;;;17.91;100.00;100489.17;1453042;90;21591;-78
2023/07/14 02:44:14;;;;;;;4.30;3.20;;;;;;;17.84;100.00;100489.64;1446220;90;21516;-80
2023/07/14 02:46:58;;;;;;;4.20;3.10;;;;;;;17.80;100.00;100487.84;1451817;90;22353;-80
2023/07/14 02:49:24;;;;;;;3.17;2.87;;;;;;;17.75;100.00;100484.05;1449524;90;21538;-78
2023/07/14 02:51:50;;;;;;;5.07;3.47;;;;;;;17.72;100.00;100495.14;1447187;90;22440;-78
2023/07/14 02:54:16;;;;;;;6.33;3.10;;;;;;;17.69;100.00;100484.31;1448391;90;21463;-77
2023/07/14 02:56:43;;;;;;;4.83;3.60;;;;;;;17.70;100.00;100477.13;1447097;90;21641;-78
2023/07/14 02:59:12;;;;;;;4.57;3.07;;;;;;;17.71;100.00;100480.12;1449574;90;21553;-78
2023/07/14 03:01:38;;;;;;;3.47;3.17;;;;;;;17.72;100.00;100485.78;1442033;89;21649;-77
2023/07/14 03:04:06;;;;;;;8.90;4.40;;;;;;;17.70;100.00;100495.36;1450875;90;22346;-78
2023/07/14 03:06:32;;;;;;;4.80;3.53;;;;;;;17.69;100.00;100491.52;1447347;90;22123;-78
2023/07/14 03:08:58;;;;;;;3.30;2.80;;;;;;;17.69;100.00;100488.33;1446806;90;21516;-78
2023/07/14 03:11:25;;;;;;;10.30;3.40;;;;;;;17.72;100.00;100489.80;1448417;90;21560;-80
2023/07/14 03:13:52;;;;;;;5.77;4.03;;;;;;;17.73;100.00;100482.09;1447047;90;21458;-78
2023/07/14 03:16:19;;;;;;;4.57;2.87;;;;;;;17.71;100.00;100490.31;1442341;90;21450;-76
2023/07/14 03:18:46;;;;;;;9.00;3.60;;;;;;;17.74;100.00;100493.11;1449879;90;21618;-77
2023/07/14 03:21:12;;;;;;;3.80;3.23;;;;;;;17.72;100.00;100492.47;1450429;90;22389;-77
2023/07/14 03:23:39;;;;;;;8.40;3.30;;;;;;;17.75;100.00;100497.44;1453388;90;21635;-76
2023/07/14 03:26:08;;;;;;;4.03;2.83;;;;;;;17.77;100.00;100498.08;1446511;90;21479;-78
2023/07/14 03:28:36;;;;;;;6.90;4.83;;;;;;;17.80;100.00;100496.38;1438011;90;21659;-81
2023/07/14 03:31:03;;;;;;;4.53;3.40;;;;;;;17.83;100.00;100505.37;1451980;90;21472;-80
2023/07/14 03:33:32;;;;;;;4.73;3.57;;;;;;;17.83;100.00;100508.56;1449632;90;21715;-79
2023/07/14 03:36:04;;;;;;;4.23;3.80;;;;;;;17.83;100.00;100508.05;1449340;90;21442;-80
2023/07/14 03:38:30;;;;;;;4.43;3.97;;;;;;;17.85;100.00;100511.87;1449062;90;21517;-80
2023/07/14 03:40:56;;;;;;;7.63;3.43;;;;;;;17.86;100.00;100501.48;1446879;90;21495;-77
2023/07/14 03:43:23;;;;;;;3.87;3.20;;;;;;;17.90;100.00;100498.75;1441686;90;21590;-78
2023/07/14 03:45:49;;;;;;;5.13;3.40;;;;;;;17.91;100.00;100504.41;1453093;90;22316;-78
2023/07/14 03:48:15;;;;;;;4.60;2.83;;;;;;;17.95;100.00;100505.66;1454509;90;21472;-79
2023/07/14 03:50:42;;;;;;;19.93;3.73;;;;;;;18.00;100.00;100509.42;1455044;90;21554;-80
2023/07/14 03:53:08;;;;;;;6.00;3.57;;;;;;;18.03;100.00;100506.86;1451214;90;22345;-81
2023/07/14 03:55:35;;;;;;;5.13;3.70;;;;;;;18.07;100.00;100505.95;1447582;90;21443;-79
2023/07/14 03:58:01;;;;;;;6.33;3.20;;;;;;;18.09;100.00;100496.71;1450705;90;21627;-80
2023/07/14 04:00:27;;;;;;;6.03;3.70;;;;;;;18.10;100.00;100497.56;1455760;90;22367;-81
2023/07/14 04:02:54;;;;;;;7.90;3.20;;;;;;;18.11;100.00;100501.89;1442606;90;21531;-80
2023/07/14 04:05:20;;;;;;;5.00;3.63;;;;;;;18.14;100.00;100496.14;1445645;90;21798;-81
2023/07/14 04:07:46;;;;;;;9.25;3.25;;;;;;;18.16;100.00;100500.28;1446820;90;21508;-80
2023/07/14 04:10:13;;;;;;;4.72;3.42;;;;;;;18.16;100.00;100505.64;1448618;90;21607;-80
2023/07/14 04:12:39;;;;;;;7.40;3.67;;;;;;;18.21;100.00;100502.36;1461463;90;22352;-79
2023/07/14 04:15:07;;;;;;;8.68;3.92;;;;;;;18.23;100.00;100499.80;1457494;90;21715;-79
2023/07/14 04:17:33;;;;;;;7.80;3.65;;;;;;;18.24;100.00;100499.28;1457124;90;21609;-79
2023/07/14 04:20:00;;;;;;;4.60;3.80;;;;;;;18.24;100.00;100495.27;1448735;90;21495;-80
2023/07/14 04:22:26;;;;;;;6.83;3.08;;;;;;;18.28;100.00;100489.84;1441559;90;21390;-79
2023/07/14 04:24:53;;;;;;;8.33;4.12;;;;;;;18.33;100.00;100487.41;1451998;90;21590;-80
2023/07/14 04:27:19;;;;;;;4.67;3.02;;;;;;;18.37;100.00;100491.86;1449610;90;21575;-78
2023/07/14 04:29:46;;;;;;;6.95;3.77;;;;;;;18.40;100.00;100494.96;1448085;90;21414;-79
2023/07/14 04:32:12;;;;;;;5.25;3.25;;;;;;;18.44;100.00;100494.90;1456954;90;21531;-81
2023/07/14 04:34:38;;;;;;;5.35;3.85;;;;;;;18.47;100.00;100493.16;1451707;90;22478;-80
2023/07/14 04:37:04;;;;;;;6.28;3.45;;;;;;;18.51;100.00;100494.92;1447336;90;21494;-81
2023/07/14 04:39:31;;;;;;;4.78;3.22;;;;;;;18.57;100.00;100494.65;1441770;90;22477;-82
2023/07/14 04:41:57;;;;;;;5.70;2.77;;;;;;;18.61;100.00;100497.23;1447127;90;21656;-81
2023/07/14 04:44:24;;;;;;;3.40;2.90;;;;;;;18.71;100.00;100504.41;1443236;90;21523;-81
2023/07/14 04:46:50;;;;;;;5.80;3.10;;;;;;;18.78;100.00;100503.12;1447769;90;21384;-80
2023/07/14 04:49:17;;;;;;;6.28;3.52;;;;;;;18.87;100.00;100509.97;1446643;90;22351;-81
2023/07/14 04:51:44;;;;;;;7.67;3.85;;;;;;;18.93;100.00;100509.16;1444436;90;21509;-82
2023/07/14 04:54:10;;;;;;;7.37;3.20;;;;;;;18.92;100.00;100507.52;1431119;90;21631;-81
2023/07/14 04:56:44;;;;;;;6.37;3.52;;;;;;;19.02;100.00;100509.33;1441888;90;22373;-79
2023/07/14 04:59:08;;;;;;;4.10;3.20;;;;;;;19.09;100.00;100513.36;1447262;90;21501;-81
2023/07/14 05:01:34;;;;;;;4.53;3.12;;;;;;;19.16;100.00;100512.85;1446998;90;21509;-80
2023/07/14 05:04:00;;;;;;;11.85;4.45;;;;;;;19.22;100.00;100525.98;1450946;90;21524;-81
2023/07/14 05:06:27;;;;;;;4.55;3.45;;;;;;;19.31;100.00;100530.98;1446018;90;21458;-81
2023/07/14 05:08:54;;;;;;;6.90;3.92;;;;;;;19.36;100.00;100527.18;1447919;90;21516;-81
2023/07/14 05:11:21;;;;;;;5.60;3.65;;;;;;;19.41;100.00;100531.92;1447425;90;21516;-79
2023/07/14 05:13:51;;;;;;;3.62;3.25;;;;;;;19.50;100.00;100536.58;1442612;90;21539;-80
2023/07/14 05:16:17;;;;;;;7.10;3.52;;;;;;;19.60;100.00;100537.84;1445252;90;21442;-80
2023/07/14 05:18:43;;;;;;;6.60;3.72;;;;;;;19.65;98.94;100547.14;1451432;90;21465;-80
2023/07/14 05:21:10;;;;;;;5.22;3.72;;;;;;;19.66;97.81;100542.95;1449668;90;21753;-79
2023/07/14 05:23:36;;;;;;;6.00;3.50;;;;;;;19.72;98.12;100554.21;1453505;90;21509;-80
2023/07/14 05:26:03;;;;;;;5.17;4.10;;;;;;;19.80;98.10;100558.05;1448566;90;21679;-81
2023/07/14 05:28:29;;;;;;;5.62;3.47;;;;;;;19.90;98.01;100560.84;1446617;90;22360;-81
2023/07/14 05:30:57;;;;;;;7.22;4.58;;;;;;;19.94;97.81;100560.23;1447378;90;21495;-80
2023/07/14 05:33:23;;;;;;;7.03;5.08;;;;;;;19.99;97.15;100559.59;1449626;90;21405;-81
2023/07/14 05:35:50;;;;;;;7.35;4.10;;;;;;;20.03;96.25;100561.68;1446100;90;21524;-81
2023/07/14 05:38:17;;;;;;;11.00;4.65;;;;;;;20.17;97.27;100563.86;1450085;90;21495;-81
2023/07/14 05:40:46;;;;;;;5.55;4.15;;;;;;;20.26;96.77;100569.32;1446578;90;22470;-81
2023/07/14 05:43:12;;;;;;;5.87;4.15;;;;;;;20.37;95.77;100573.25;1442577;88;21530;-80
2023/07/14 05:45:39;;;;;;;10.85;4.60;;;;;;;20.44;95.51;100574.58;1456815;90;22503;-78
2023/07/14 05:48:06;;;;;;;10.18;4.70;;;;;;;20.47;95.21;100576.84;1448700;90;21524;-81
2023/07/14 05:50:35;;;;;;;5.97;4.45;;;;;;;20.48;94.71;100576.66;1452043;90;21486;-79
2023/07/14 05:53:01;;;;;;;7.12;4.12;;;;;;;20.61;95.56;100573.66;1436816;90;21420;-80
2023/07/14 05:55:27;;;;;;;5.12;4.40;;;;;;;20.70;94.91;100577.24;1451746;90;21508;-80
2023/07/14 05:57:53;;;;;;;5.45;4.00;;;;;;;20.81;94.65;100574.43;1443981;90;21487;-81
2023/07/14 06:00:20;;;;;;;5.28;4.28;;;;;;;20.99;95.16;100570.23;1442553;90;22441;-82
2023/07/14 06:02:50;;;;;;;10.00;4.40;;;;;;;21.13;94.97;100580.73;1449267;90;21638;-81
2023/07/14 06:05:17;;;;;;;7.25;4.28;;;;;;;21.26;94.19;100577.67;1453840;90;21442;-79
2023/07/14 06:07:43;;;;;;;5.65;4.55;;;;;;;21.35;93.20;100581.79;1453911;90;21457;-79
2023/07/14 06:10:12;;;;;;;4.75;4.03;;;;;;;21.28;89.59;100570.21;1450410;90;21479;-86
2023/07/14 06:12:38;;;;;;;4.12;3.47;;;;;;;21.30;90.91;100577.56;1446847;90;21620;-88
2023/07/14 06:15:06;;;;;;;5.08;3.75;;;;;;;21.41;90.93;100579.61;1461360;90;21464;-83
2023/07/14 06:17:33;;;;;;;5.05;4.55;;;;;;;21.51;91.10;100580.48;1449183;90;21538;-82
2023/07/14 06:19:59;;;;;;;4.72;4.15;;;;;;;21.68;90.66;100575.41;1446727;90;21465;-81
2023/07/14 06:22:25;;;;;;;4.08;3.67;;;;;;;21.76;89.66;100587.28;1441507;90;21672;-82
2023/07/14 06:24:51;;;;;;;4.22;3.80;;;;;;;21.85;89.76;100590.01;1443561;90;21509;-79
2023/07/14 06:27:18;;;;;;;5.62;4.08;;;;;;;21.96;90.05;100579.87;1443511;90;21494;-83
2023/07/14 06:29:45;;;;;;;5.40;3.52;;;;;;;21.97;88.14;100585.56;1448095;90;22136;-83
2023/07/14 06:32:12;;;;;;;4.87;4.12;;;;;;;22.04;88.72;100582.31;1449214;90;21642;-82
2023/07/14 06:34:38;;;;;;;7.05;4.15;;;;;;;22.16;88.71;100581.59;1444948;90;21567;-82
2023/07/14 06:37:06;;;;;;;4.05;3.25;;;;;;;22.26;86.91;100583.28;1444934;90;21420;-82
2023/07/14 06:39:32;;;;;;;4.92;4.05;;;;;;;22.40;86.68;100586.17;1443279;90;21465;-82
2023/07/14 06:41:58;;;;;;;5.25;3.80;;;;;;;22.55;87.09;100572.86;1441279;90;22097;-81
2023/07/14 06:44:25;;;;;;;5.03;3.65;;;;;;;22.66;85.94;100574.82;1446177;90;21397;-80
2023/07/14 06:46:51;;;;;;;4.25;3.22;;;;;;;22.62;82.22;100573.63;1442542;90;22339;-82
2023/07/14 06:49:17;;;;;;;6.42;4.12;;;;;;;22.60;82.81;100576.54;1450370;90;21699;-81
2023/07/14 06:51:44;;;;;;;9.28;3.55;;;;;;;22.59;81.03;100579.47;1447732;90;21479;-82
2023/07/14 06:54:10;;;;;;;3.77;3.10;;;;;;;22.59;81.70;100579.47;1451814;90;21641;-84
2023/07/14 06:56:36;;;;;;;4.62;3.62;;;;;;;22.51;81.00;100580.05;1444740;90;21501;-84
2023/07/14 06:59:02;;;;;;;8.70;3.67;;;;;;;22.53;80.94;100582.01;1449225;90;22026;-82
2023/07/14 07:01:29;;;;;;;4.78;3.30;;;;;;;22.64;82.26;100589.05;1451943;90;21658;-80
2023/07/14 07:03:55;;;;;;;7.78;3.27;;;;;;;22.72;82.40;100582.84;1445097;90;22418;-82
2023/07/14 07:06:21;;;;;;;3.80;3.30;;;;;;;22.85;81.99;100587.28;1445131;90;21628;-81
2023/07/14 07:08:49;;;;;;;5.28;3.37;;;;;;;22.95;81.80;100584.89;1443969;90;21465;-81
2023/07/14 07:11:15;;;;;;;4.22;3.40;;;;;;;23.07;81.87;100588.19;1444875;90;21539;-83
2023/07/14 07:13:41;;;;;;;6.22;3.17;;;;;;;23.16;81.51;100594.92;1446784;90;22447;-83
2023/07/14 07:16:08;;;;;;;8.33;3.50;;;;;;;23.28;81.23;100598.53;1448122;90;21650;-81
2023/07/14 07:18:34;;;;;;;5.05;3.20;;;;;;;23.30;80.67;100595.59;1448990;90;22054;-82
2023/07/14 07:21:01;;;;;;;3.58;2.65;;;;;;;23.34;78.65;100592.22;1452352;90;21667;-83
2023/07/14 07:23:28;;;;;;;5.85;3.00;;;;;;;23.45;79.29;100592.48;1449131;90;21456;-79
2023/07/14 07:25:56;;;;;;;5.75;3.35;;;;;;;23.55;78.46;100595.47;1446205;90;21634;-80
2023/07/14 07:28:23;;;;;;;6.78;3.45;;;;;;;23.58;75.12;100596.36;1441508;90;21591;-82
2023/07/14 07:30:49;;;;;;;6.35;3.17;;;;;;;23.59;73.33;100596.15;1446629;90;21691;-82
2023/07/14 07:33:16;;;;;;;5.25;2.98;;;;;;;23.64;74.90;100593.56;1448603;90;21694;-81
2023/07/14 07:35:43;;;;;;;6.53;3.22;;;;;;;23.66;73.51;100596.05;1447352;90;21463;-83
2023/07/14 07:38:11;;;;;;;4.47;2.90;;;;;;;23.71;74.70;100592.16;1374632;90;22217;-78
2023/07/14 07:40:45;;;;;;;4.90;3.10;;;;;;;23.82;75.76;100601.34;1378868;90;21662;-83
2023/07/14 07:43:11;;;;;;;4.45;3.30;;;;;;;23.98;76.91;100603.92;1530209;90;21355;-82
2023/07/14 07:45:38;;;;;;;5.85;3.20;;;;;;;24.14;76.56;100601.91;1375462;90;21458;-82
2023/07/14 07:48:05;;;;;;;7.20;3.55;;;;;;;24.18;74.65;100609.83;1375033;90;22597;-79
2023/07/14 07:50:31;;;;;;;9.38;3.02;;;;;;;24.21;76.23;100614.77;1373877;90;21347;-80
2023/07/14 07:52:58;;;;;;;4.85;2.87;;;;;;;24.29;75.37;100618.48;1381120;90;21473;-79
2023/07/14 07:55:24;;;;;;;3.50;3.00;;;;;;;24.46;74.19;100615.95;1374913;90;21355;-81
2023/07/14 07:57:51;;;;;;;5.62;2.80;;;;;;;24.48;74.71;100620.57;1380563;90;21451;-79
2023/07/14 08:00:17;;;;;;;10.85;3.58;;;;;;;24.57;74.86;100618.88;1374650;90;22361;-80
2023/07/14 08:02:44;;;;;;;4.65;3.33;;;;;;;24.65;75.05;100619.34;1406464;90;21443;-79
2023/07/14 08:05:13;;;;;;;5.47;3.50;;;;;;;24.58;72.33;100618.66;1526231;90;21369;-80
2023/07/14 08:07:40;;;;;;;6.53;3.22;;;;;;;24.60;72.51;100621.11;1515331;90;21406;-81
2023/07/14 08:10:08;;;;;;;7.03;3.62;;;;;;;24.57;72.11;100622.43;1376114;90;21576;-80
2023/07/14 08:12:34;;;;;;;3.67;2.83;;;;;;;24.61;73.01;100624.95;1374562;90;21611;-81
2023/07/14 08:15:00;;;;;;;6.70;3.00;;;;;;;24.79;74.01;100624.52;1374810;90;21488;-82
2023/07/14 08:17:31;;;;;;;9.10;3.17;;;;;;;24.95;74.55;100621.09;1375485;90;21413;-80
2023/07/14 08:19:58;;;;;;;4.72;3.17;;;;;;;25.01;70.87;100616.08;1371421;90;22338;-81
2023/07/14 08:22:26;;;;;;;4.40;2.90;;;;;;;25.09;73.31;100619.78;1373926;90;21524;-80
2023/07/14 08:24:55;;;;;;;5.55;3.25;;;;;;;25.10;72.20;100622.77;1379844;90;22227;-83
2023/07/14 08:27:21;;;;;;;7.90;3.90;;;;;;;25.03;71.13;100619.89;1371574;90;22331;-79
2023/07/14 08:29:48;;;;;;;6.30;3.27;;;;;;;24.97;69.12;100618.95;1380664;90;21325;-81
2023/07/14 08:32:15;;;;;;;6.80;3.52;;;;;;;24.95;70.49;100617.03;1375038;90;21413;-82
2023/07/14 08:34:42;;;;;;;7.28;3.35;;;;;;;25.08;71.33;100614.58;1379339;90;21295;-82
2023/07/14 08:37:08;;;;;;;8.10;3.40;;;;;;;25.19;71.12;100613.77;1530027;90;21334;-81
2023/07/14 08:39:34;;;;;;;3.67;2.50;;;;;;;25.26;69.68;100629.87;1375377;90;21207;-82
2023/07/14 08:42:11;;;;;;;6.78;3.20;;;;;;;25.33;70.89;100619.73;1375107;90;21214;-84
2023/07/14 08:45:01;;;;;;;7.53;2.60;;;;;;;25.40;71.34;100617.70;1401119;90;21400;-83
2023/07/14 08:47:45;;;;;;;9.38;2.90;;;;;;;25.49;69.32;100613.56;1373593;90;21422;-82
2023/07/14 08:50:17;;;;;;;4.75;3.05;;;;;;;25.66;70.45;100611.72;1421535;90;21618;-78
2023/07/14 08:52:45;;;;;;;6.40;2.40;;;;;;;25.65;70.91;100612.77;1469464;93;22351;-82
2023/07/14 08:55:21;;;;;;;9.20;3.40;;;;;;;25.68;67.86;100606.58;1337626;93;21448;-84
2023/07/14 08:57:58;;;;;;;5.67;2.90;;;;;;;25.79;68.79;100617.90;1370660;90;21385;-83
2023/07/14 09:00:42;;;;;;;5.62;3.00;;;;;;;25.93;68.53;100612.48;1530788;90;21213;-82
2023/07/14 09:03:39;;;;;;;6.58;3.00;;;;;;;26.06;66.76;100613.51;1523377;89;22154;-83
2023/07/14 09:06:35;;;;;;;5.30;3.17;;;;;;;26.14;67.07;100617.71;1491454;90;21524;-83
2023/07/14 09:09:04;;;;;;;4.60;3.42;;;;;;;26.21;68.10;100616.19;1436159;90;21309;-79
2023/07/14 09:11:51;;;;;;;5.47;2.83;;;;;;;26.31;66.82;100624.50;1518813;90;21303;-82
2023/07/14 09:14:50;;;;;;;8.50;3.05;;;;;;;26.43;66.42;100619.80;1373030;91;21296;-83
2023/07/14 09:17:33;;;;;;;6.40;2.77;;;;;;;26.39;65.04;100620.02;1386652;90;22102;-83
2023/07/14 09:20:36;;;;;;;3.25;2.37;;;;;;;26.31;64.68;100616.36;1453917;90;22389;-83
2023/07/14 09:23:41;;;;;;;7.55;2.90;;;;;;;26.49;66.28;100617.44;1445143;90;21591;-83
2023/07/14 09:26:23;;;;;;;5.75;2.62;;;;;;;26.70;66.14;100608.27;1446335;90;21450;-81
2023/07/14 09:28:51;;;;;;;3.77;2.92;;;;;;;26.66;61.58;100616.64;1451287;90;21487;-81
2023/07/14 09:31:51;;;;;;;3.60;2.92;;;;;;;26.50;62.02;100619.14;1373628;90;21303;-84
2023/07/14 09:34:27;;;;;;;;;;;;;;;26.44;61.97;100620.10;1526637;90;21267;-82
2023/07/14 09:36:54;;;;;;;5.60;2.60;;;;;;;26.64;64.74;100622.30;1530717;90;20226;-80
2023/07/14 09:39:41;;;;;;;4.85;2.37;;;;;;;26.65;60.77;100625.86;1379622;90;21318;-83
2023/07/14 09:42:28;;;;;;;8.35;3.02;;;;;;;26.65;61.01;100617.72;1370662;93;21473;-83
2023/07/14 09:45:03;;;;;;;3.40;2.40;;;;;;;26.72;63.28;100619.70;1524168;90;21484;-80
2023/07/14 09:47:30;;;;;;;4.42;2.40;;;;;;;26.88;62.98;100622.93;1376786;91;21303;-81
2023/07/14 09:49:57;;;;;;;6.92;3.00;;;;;;;27.01;62.93;100608.96;1379312;90;21318;-81
2023/07/14 09:52:27;;;;;;;6.25;2.85;;;;;;;27.16;63.47;100612.97;1373852;90;22288;-83
2023/07/14 09:54:57;;;;;;;4.70;2.90;;;;;;;27.28;63.00;100616.95;1377969;90;22264;-81
2023/07/14 09:57:32;;;;;;;3.98;2.87;;;;;;;27.34;62.12;100615.38;1529092;90;21296;-82
2023/07/14 10:00:13;;;;;;;6.22;2.20;;;;;;;27.46;62.51;100609.80;1516059;90;21392;-82
2023/07/14 10:02:37;;;;;;;3.22;2.50;;;;;;;27.60;61.85;100598.81;1417786;90;21472;-84
2023/07/14 10:05:27;;;;;;;5.75;2.52;;;;;;;27.77;61.16;100600.06;1448524;90;21575;-79
2023/07/14 10:07:53;;;;;;;5.75;2.52;;;;;;;27.60;57.61;100592.02;1447935;90;22838;-77
2023/07/14 10:10:26;;;;;;;3.52;3.08;;;;;;;27.43;57.72;100589.39;1445827;90;21576;-82
2023/07/14 10:12:50;;;;;;;3.20;2.37;;;;;;;27.49;58.76;100581.30;1442897;90;21539;-81
2023/07/14 10:15:35;;;;;;;5.53;2.52;;;;;;;27.43;58.24;100588.03;1447653;90;22197;-78
2023/07/14 10:18:15;;;;;;;4.40;2.50;;;;;;;27.51;58.28;100584.59;1449470;90;21681;-83
2023/07/14 10:20:43;;;;;;;;;;;;;;;27.65;57.55;100581.73;1449291;90;21696;-80
2023/07/14 10:23:16;;;;;;;3.70;2.27;;;;;;;27.51;55.52;100584.05;1450809;90;20397;-82
2023/07/14 10:25:54;;;;;;;3.22;2.20;;;;;;;27.56;57.65;100582.71;1422238;90;21516;-82
2023/07/14 10:28:27;;;;;;;6.05;3.20;;;;;;;27.70;57.90;100576.33;1463079;90;21443;-82
2023/07/14 10:31:34;;;;;;;4.90;2.20;;;;;;;27.76;57.84;100572.57;1446071;90;21516;-82
2023/07/14 10:34:15;;;;;;;3.92;2.80;;;;;;;27.85;56.15;100578.39;1427188;91;21487;-82
2023/07/14 10:36:43;;;;;;;3.33;2.52;;;;;;;27.96;57.38;100575.22;1448794;90;22662;-82
2023/07/14 10:39:18;;;;;;;6.83;2.60;;;;;;;28.16;58.05;100583.55;1437197;90;21324;-82
2023/07/14 10:41:47;;;;;;;3.98;2.50;;;;;;;28.26;54.97;100576.83;1442551;90;22705;-80
2023/07/14 10:44:23;;;;;;;;;;;;;;;28.43;55.22;100579.97;1444971;90;21413;-82
2023/07/14 10:46:54;;;;;;;7.53;2.05;;;;;;;28.35;51.92;100583.41;1437935;90;20360;-79
2023/07/14 10:49:32;;;;;;;4.83;2.05;;;;;;;28.41;46.81;100576.66;1449242;90;21546;-81
2023/07/14 10:52:18;;;;;;;3.47;2.60;;;;;;;28.32;46.68;100576.33;1443289;90;21671;-82
2023/07/14 10:55:25;;;;;;;4.67;2.37;;;;;;;28.34;46.59;100582.34;1449061;90;21524;-83
2023/07/14 10:58:18;;;;;;;4.08;2.40;;;;;;;28.44;47.96;100584.33;1449080;90;21698;-83
2023/07/14 11:00:56;;;;;;;8.13;3.05;;;;;;;28.58;47.33;100583.33;1432589;90;21657;-79
2023/07/14 11:03:37;;;;;;;2.60;2.08;;;;;;;28.67;47.46;100585.27;1435664;90;21620;-82
2023/07/14 11:06:14;;;;;;;4.47;2.12;;;;;;;28.67;44.91;100579.83;1433732;90;21634;-79
2023/07/14 11:08:41;;;;;;;3.70;1.92;;;;;;;28.56;41.36;100583.58;1441949;90;22256;-85
2023/07/14 11:11:22;;;;;;;3.98;2.50;;;;;;;28.46;41.01;100590.33;1437572;90;21591;-81
2023/07/14 11:14:29;;;;;;;6.12;2.27;;;;;;;28.48;41.25;100584.06;1441950;90;21391;-83
2023/07/14 11:17:24;;;;;;;3.92;2.20;;;;;;;28.71;41.94;100576.84;1451570;90;21547;-83
2023/07/14 11:20:12;;;;;;;3.42;2.20;;;;;;;28.86;41.87;100567.95;1452363;90;21436;-81
2023/07/14 11:23:23;;;;;;;12.10;2.25;;;;;;;28.91;41.81;100569.86;1453423;90;21443;-86
2023/07/14 11:26:12;;;;;;;7.80;2.80;;;;;;;29.09;42.03;100574.03;1443126;90;21524;-85
2023/07/14 11:28:47;;;;;;;4.12;2.08;;;;;;;29.06;42.00;100572.69;1435644;90;22786;-81
2023/07/14 11:31:29;;;;;;;3.08;2.45;;;;;;;29.06;42.37;100571.33;1449882;90;21450;-86
2023/07/14 11:34:30;;;;;;;5.03;2.40;;;;;;;28.88;41.75;100576.66;1445402;90;21605;-84
2023/07/14 11:37:31;;;;;;;4.72;2.30;;;;;;;28.81;42.56;100575.27;1451937;90;22643;-83
2023/07/14 11:40:09;;;;;;;3.00;2.60;;;;;;;28.99;43.47;100569.34;1444146;90;22499;-85
2023/07/14 11:42:36;;;;;;;7.72;3.08;;;;;;;29.13;42.32;100559.63;1445726;90;21524;-84